Time;durP1;ratioP1;P1;durP2;ratioP2;P2;SDS_P1;SDS_P2;PMS_P1;PMS_P2;Temp;Humidity;BMP_temperature;BMP_pressure;BME280_temperature;BME280_humidity;BME280_pressure;Samples;Min_cycle;Max_cycle;Signal;HPM_P1;HPM_P2
2022/02/22 00:01:07;;;;;;;;;;;10.30;40.20;;;;;;6172618;23;19924;-77
2022/02/22 00:03:36;;;;;;;;;;;10.30;40.30;;;;;;6163958;23;19996;-77
2022/02/22 00:06:03;;;;;;;;;;;10.30;40.50;;;;;;6189992;23;19920;-76
2022/02/22 00:08:30;;;;;;;;;;;10.30;40.60;;;;;;6201211;23;20292;-77
2022/02/22 00:10:58;;;;;;;;;;;10.20;40.60;;;;;;6194824;23;19967;-77
2022/02/22 00:13:25;;;;;;;;;;;10.10;40.40;;;;;;6188868;23;19916;-78
2022/02/22 00:15:52;;;;;;;;;;;10.20;40.30;;;;;;6176458;23;19923;-78
2022/02/22 00:18:19;;;;;;;;;;;10.10;40.60;;;;;;6174016;23;19920;-78
2022/02/22 00:20:46;;;;;;;;;;;10.00;41.10;;;;;;6178518;23;19979;-76
2022/02/22 00:23:13;;;;;;;;;;;10.00;42.10;;;;;;6171461;23;19927;-79
2022/02/22 00:25:41;;;;;;;;;;;9.90;41.00;;;;;;6198123;23;19920;-78
2022/02/22 00:28:07;;;;;;;;;;;9.80;41.40;;;;;;6191634;23;19916;-78
2022/02/22 00:30:34;;;;;;;;;;;9.80;41.10;;;;;;6170009;23;20297;-79
2022/02/22 00:33:01;;;;;;;;;;;9.70;41.10;;;;;;6194811;23;19920;-77
2022/02/22 00:35:28;;;;;;;;;;;9.60;41.40;;;;;;6180218;23;19939;-76
2022/02/22 00:37:54;;;;;;;;;;;9.50;42.10;;;;;;6176308;23;19916;-76
2022/02/22 00:40:21;;;;;;;;;;;9.40;42.50;;;;;;6196601;23;19920;-78
2022/02/22 00:42:49;;;;;;;;;;;9.30;42.70;;;;;;6168878;23;19916;-78
2022/02/22 00:45:15;;;;;;;;;;;9.10;43.20;;;;;;6178607;23;20341;-78
2022/02/22 00:47:42;;;;;;;;;;;9.00;43.40;;;;;;6201766;23;19916;-78
2022/02/22 00:50:09;;;;;;;;;;;8.90;43.30;;;;;;6195577;23;19916;-77
2022/02/22 00:52:36;;;;;;;;;;;8.80;43.60;;;;;;6172741;23;19943;-77
2022/02/22 00:55:03;;;;;;;;;;;8.80;43.80;;;;;;6195280;23;19927;-75
2022/02/22 00:57:30;;;;;;;;;;;8.70;43.20;;;;;;6190283;23;19940;-76
2022/02/22 00:59:57;;;;;;;;;;;8.80;42.70;;;;;;6199829;23;19943;-79
2022/02/22 01:02:23;;;;;;;;;;;8.80;43.80;;;;;;6165217;23;20250;-77
2022/02/22 01:04:50;;;;;;;;;;;8.70;43.00;;;;;;6177573;23;19916;-78
2022/02/22 01:07:17;;;;;;;;;;;8.70;43.30;;;;;;6199592;23;19982;-78
2022/02/22 01:09:44;;;;;;;;;;;8.60;43.40;;;;;;6166774;23;19916;-77
2022/02/22 01:12:12;;;;;;;;;;;8.60;43.60;;;;;;6173931;23;20353;-78
2022/02/22 01:14:38;;;;;;;;;;;8.60;42.80;;;;;;6171795;23;20296;-77
2022/02/22 01:17:05;;;;;;;;;;;8.60;43.10;;;;;;6194132;23;19916;-77
2022/02/22 01:19:32;;;;;;;;;;;8.70;42.30;;;;;;6177035;23;19962;-75
2022/02/22 01:22:00;;;;;;;;;;;8.90;42.00;;;;;;6164548;23;19916;-77
2022/02/22 01:24:26;;;;;;;;;;;9.00;41.60;;;;;;6160014;23;19943;-78
2022/02/22 01:26:53;;;;;;;;;;;9.20;41.30;;;;;;6199851;23;19970;-75
2022/02/22 01:29:20;;;;;;;;;;;9.30;40.80;;;;;;6169853;23;20400;-77
2022/02/22 01:31:47;;;;;;;;;;;9.40;40.30;;;;;;6199216;23;19939;-78
2022/02/22 01:34:13;;;;;;;;;;;9.50;40.40;;;;;;6200331;23;19920;-76
2022/02/22 01:36:40;;;;;;;;;;;9.50;40.30;;;;;;6199590;23;19963;-76
2022/02/22 01:39:07;;;;;;;;;;;9.70;39.80;;;;;;6188475;23;19939;-76
2022/02/22 01:41:38;;;;;;;;;;;9.80;39.40;;;;;;6168943;23;19927;-76
2022/02/22 01:44:05;;;;;;;;;;;9.90;40.20;;;;;;6199127;23;19928;-78
2022/02/22 01:46:32;;;;;;;;;;;10.00;39.40;;;;;;6197990;23;19923;-75
2022/02/22 01:48:59;;;;;;;;;;;9.90;39.20;;;;;;6173391;23;19916;-78
2022/02/22 01:51:26;;;;;;;;;;;10.00;39.00;;;;;;6176539;23;19904;-78
2022/02/22 01:53:53;;;;;;;;;;;10.00;38.90;;;;;;6192864;23;19907;-76
2022/02/22 01:56:21;;;;;;;;;;;10.00;39.30;;;;;;6172748;23;19900;-75
2022/02/22 01:58:48;;;;;;;;;;;9.90;39.20;;;;;;6202263;23;19939;-75
2022/02/22 02:01:15;;;;;;;;;;;9.80;39.70;;;;;;6172857;23;19939;-78
2022/02/22 02:03:42;;;;;;;;;;;9.70;39.90;;;;;;6168554;23;19916;-75
2022/02/22 02:06:08;;;;;;;;;;;9.60;40.40;;;;;;6170324;23;20293;-77
2022/02/22 02:08:35;;;;;;;;;;;9.50;40.30;;;;;;6165523;23;19916;-78
2022/02/22 02:11:08;;;;;;;;;;;9.50;39.70;;;;;;6159132;23;19923;-78
2022/02/22 02:13:35;;;;;;;;;;;9.60;40.20;;;;;;6165880;23;19963;-76
2022/02/22 02:16:03;;;;;;;;;;;9.60;40.00;;;;;;6168607;23;20314;-76
2022/02/22 02:18:29;;;;;;;;;;;9.70;39.40;;;;;;6169124;23;19923;-75
2022/02/22 02:20:57;;;;;;;;;;;9.70;39.70;;;;;;6161370;23;19916;-77
2022/02/22 02:23:24;;;;;;;;;;;9.70;39.80;;;;;;6164357;23;19912;-77
2022/02/22 02:25:50;;;;;;;;;;;9.60;39.80;;;;;;6160769;23;19920;-76
2022/02/22 02:28:17;;;;;;;;;;;9.50;40.00;;;;;;6176315;23;19975;-79
2022/02/22 02:30:44;;;;;;;;;;;9.60;39.00;;;;;;6167254;23;19920;-77
2022/02/22 02:33:11;;;;;;;;;;;9.80;38.50;;;;;;6155974;23;19921;-77
2022/02/22 02:35:38;;;;;;;;;;;9.90;38.40;;;;;;6158906;23;19927;-77
2022/02/22 02:38:05;;;;;;;;;;;9.90;38.60;;;;;;6172724;23;19917;-76
2022/02/22 02:40:39;;;;;;;;;;;9.90;38.70;;;;;;6160453;23;19924;-76
2022/02/22 02:43:06;;;;;;;;;;;9.90;38.50;;;;;;6162917;23;19916;-77
2022/02/22 02:45:34;;;;;;;;;;;9.80;38.80;;;;;;6172367;23;19931;-77
2022/02/22 02:48:00;;;;;;;;;;;9.70;39.10;;;;;;6161964;23;20254;-77
2022/02/22 02:50:27;;;;;;;;;;;9.60;39.30;;;;;;6169490;23;19908;-78
2022/02/22 02:52:54;;;;;;;;;;;9.50;39.30;;;;;;6165776;23;19920;-77
2022/02/22 02:55:21;;;;;;;;;;;9.40;39.80;;;;;;6167562;23;19923;-75
2022/02/22 02:57:47;;;;;;;;;;;9.30;40.20;;;;;;6167298;23;19917;-78
2022/02/22 03:00:14;;;;;;;;;;;9.20;40.80;;;;;;6160079;23;20258;-78
2022/02/22 03:02:41;;;;;;;;;;;9.00;41.00;;;;;;6169281;23;19968;-76
2022/02/22 03:05:10;;;;;;;;;;;8.90;41.60;;;;;;6162270;23;19927;-76
2022/02/22 03:07:37;;;;;;;;;;;8.70;41.80;;;;;;6164805;23;19920;-75
2022/02/22 03:10:04;;;;;;;;;;;8.60;42.30;;;;;;6171893;23;19948;-77
2022/02/22 03:12:31;;;;;;;;;;;8.60;41.20;;;;;;6165158;23;19971;-78
2022/02/22 03:14:58;;;;;;;;;;;8.50;41.40;;;;;;6169582;23;19916;-76
2022/02/22 03:17:25;;;;;;;;;;;8.40;42.00;;;;;;6157363;23;19920;-77
2022/02/22 03:19:51;;;;;;;;;;;8.20;43.70;;;;;;6164607;23;19975;-77
2022/02/22 03:22:19;;;;;;;;;;;8.10;44.70;;;;;;6167140;23;19924;-77
2022/02/22 03:24:46;;;;;;;;;;;7.90;45.40;;;;;;6162380;23;20230;-75
2022/02/22 03:27:13;;;;;;;;;;;7.70;45.70;;;;;;6162676;23;19972;-77
2022/02/22 03:29:40;;;;;;;;;;;7.60;46.00;;;;;;6160972;23;19964;-76
2022/02/22 03:32:07;;;;;;;;;;;7.40;46.10;;;;;;6163860;23;19924;-76
2022/02/22 03:34:35;;;;;;;;;;;7.20;46.80;;;;;;6159285;23;19917;-77
2022/02/22 03:37:02;;;;;;;;;;;7.10;46.80;;;;;;6168018;23;19917;-77
2022/02/22 03:39:28;;;;;;;;;;;7.00;47.20;;;;;;6173698;23;19928;-78
2022/02/22 03:41:55;;;;;;;;;;;6.90;47.60;;;;;;6170453;23;20262;-78
2022/02/22 03:44:22;;;;;;;;;;;6.80;47.80;;;;;;6164488;23;19917;-77
2022/02/22 03:46:49;;;;;;;;;;;6.80;48.00;;;;;;6170593;23;19904;-77
2022/02/22 03:49:16;;;;;;;;;;;6.80;48.40;;;;;;6167225;23;19917;-77
2022/02/22 03:51:42;;;;;;;;;;;6.70;48.70;;;;;;6161634;23;19920;-76
2022/02/22 03:54:09;;;;;;;;;;;6.60;49.20;;;;;;6177397;23;19900;-77
2022/02/22 03:56:36;;;;;;;;;;;6.60;49.60;;;;;;6168776;23;19916;-77
2022/02/22 03:59:02;;;;;;;;;;;6.60;49.70;;;;;;6166001;23;20338;-77
2022/02/22 04:01:29;;;;;;;;;;;6.50;49.90;;;;;;6160008;23;19916;-76
2022/02/22 04:03:57;;;;;;;;;;;6.50;50.20;;;;;;6161561;23;19971;-77
2022/02/22 04:06:23;;;;;;;;;;;6.40;50.40;;;;;;6170392;23;19920;-77
2022/02/22 04:08:50;;;;;;;;;;;6.30;51.10;;;;;;6193178;23;19971;-75
2022/02/22 04:11:17;;;;;;;;;;;6.30;51.00;;;;;;6192492;23;19916;-77
2022/02/22 04:13:45;;;;;;;;;;;6.40;51.10;;;;;;6195014;23;19917;-77
2022/02/22 04:16:12;;;;;;;;;;;6.40;51.70;;;;;;6193651;23;19924;-76
2022/02/22 04:18:39;;;;;;;;;;;6.30;52.00;;;;;;6195017;23;19920;-77
2022/02/22 04:21:06;;;;;;;;;;;6.30;52.00;;;;;;6200445;23;19916;-76
2022/02/22 04:23:32;;;;;;;;;;;6.20;51.80;;;;;;6189066;23;19924;-75
2022/02/22 04:25:59;;;;;;;;;;;6.20;53.20;;;;;;6189493;23;19917;-77
2022/02/22 04:28:26;;;;;;;;;;;6.10;52.50;;;;;;6201361;23;19900;-78
2022/02/22 04:30:53;;;;;;;;;;;6.10;52.50;;;;;;6170238;23;20326;-77
2022/02/22 04:33:19;;;;;;;;;;;6.10;52.70;;;;;;6165154;23;19924;-77
2022/02/22 04:35:46;;;;;;;;;;;6.00;52.80;;;;;;6170375;23;19916;-78
2022/02/22 04:38:13;;;;;;;;;;;5.80;53.50;;;;;;6205526;23;19940;-76
2022/02/22 04:40:40;;;;;;;;;;;5.60;53.60;;;;;;6204810;23;19920;-76
2022/02/22 04:43:07;;;;;;;;;;;5.60;54.00;;;;;;6199894;23;19923;-75
2022/02/22 04:45:34;;;;;;;;;;;5.80;49.50;;;;;;6193878;23;19924;-78
2022/02/22 04:48:01;;;;;;;;;;;6.20;48.30;;;;;;6198191;23;19917;-75
2022/02/22 04:50:27;;;;;;;;;;;6.50;47.40;;;;;;6203607;23;19923;-77
2022/02/22 04:52:55;;;;;;;;;;;6.50;49.80;;;;;;6162212;23;19978;-77
2022/02/22 04:55:22;;;;;;;;;;;6.50;48.10;;;;;;6168027;23;19923;-77
2022/02/22 04:57:49;;;;;;;;;;;6.50;48.80;;;;;;6170913;23;19927;-76
2022/02/22 05:00:16;;;;;;;;;;;6.40;49.00;;;;;;6173394;23;19920;-76
2022/02/22 05:02:43;;;;;;;;;;;6.40;48.80;;;;;;6186208;23;19920;-75
2022/02/22 05:05:10;;;;;;;;;;;6.20;49.30;;;;;;6192752;23;19916;-75
2022/02/22 05:07:36;;;;;;;;;;;6.00;50.20;;;;;;6199512;23;19916;-75
2022/02/22 05:10:04;;;;;;;;;;;5.90;50.80;;;;;;6192450;23;19920;-75
2022/02/22 05:12:30;;;;;;;;;;;5.70;51.50;;;;;;6171949;23;19972;-78
2022/02/22 05:14:57;;;;;;;;;;;5.60;52.70;;;;;;6199392;23;20318;-76
2022/02/22 05:17:24;;;;;;;;;;;5.50;52.40;;;;;;6190336;23;19916;-76
2022/02/22 05:19:50;;;;;;;;;;;5.50;52.80;;;;;;6186342;23;20352;-78
2022/02/22 05:22:17;;;;;;;;;;;5.50;53.10;;;;;;6196533;23;19940;-76
2022/02/22 05:24:44;;;;;;;;;;;5.50;52.80;;;;;;6199119;23;20300;-78
2022/02/22 05:27:11;;;;;;;;;;;5.60;52.30;;;;;;6192026;23;19920;-78
2022/02/22 05:29:37;;;;;;;;;;;5.50;52.50;;;;;;6196906;23;19996;-76
2022/02/22 05:32:06;;;;;;;;;;;5.50;52.70;;;;;;6196505;23;19970;-76
2022/02/22 05:34:33;;;;;;;;;;;5.40;52.50;;;;;;6196198;23;19920;-75
2022/02/22 05:37:00;;;;;;;;;;;5.40;52.50;;;;;;6175075;23;19916;-77
2022/02/22 05:39:28;;;;;;;;;;;5.40;52.10;;;;;;6195744;23;19900;-75
2022/02/22 05:41:54;;;;;;;;;;;5.40;52.10;;;;;;6198128;23;20293;-76
2022/02/22 05:44:21;;;;;;;;;;;5.30;52.10;;;;;;6167976;23;19939;-76
2022/02/22 05:46:48;;;;;;;;;;;5.30;52.10;;;;;;6192976;23;19920;-78
2022/02/22 05:49:15;;;;;;;;;;;5.40;51.10;;;;;;6177313;23;20334;-77
2022/02/22 05:51:41;;;;;;;;;;;5.40;51.10;;;;;;6170677;23;19920;-76
2022/02/22 05:54:09;;;;;;;;;;;5.40;51.20;;;;;;6169265;23;20253;-78
2022/02/22 05:56:35;;;;;;;;;;;5.50;50.60;;;;;;6189138;23;19920;-77
2022/02/22 05:59:03;;;;;;;;;;;5.90;49.30;;;;;;6186546;23;19920;-77
2022/02/22 06:01:31;;;;;;;;;;;5.90;49.40;;;;;;6163603;23;19970;-76
2022/02/22 06:03:58;;;;;;;;;;;5.80;50.00;;;;;;6186010;23;19920;-76
2022/02/22 06:06:25;;;;;;;;;;;5.70;50.10;;;;;;6189388;23;20393;-76
2022/02/22 06:08:52;;;;;;;;;;;5.20;51.50;;;;;;6189623;23;20294;-75
2022/02/22 06:11:18;;;;;;;;;;;5.10;52.00;;;;;;6194702;23;20000;-76
2022/02/22 06:13:50;;;;;;;;;;;5.10;52.30;;;;;;6186781;23;20349;-76
2022/02/22 06:16:19;;;;;;;;;;;5.10;52.60;;;;;;6189993;23;19920;-76
2022/02/22 06:18:45;;;;;;;;;;;5.00;52.00;;;;;;6198563;23;20016;-76
2022/02/22 06:21:12;;;;;;;;;;;5.10;51.20;;;;;;6186164;23;19939;-76
2022/02/22 06:23:39;;;;;;;;;;;5.20;51.00;;;;;;6165011;23;19943;-77
2022/02/22 06:26:06;;;;;;;;;;;5.50;46.80;;;;;;6197139;23;19920;-75
2022/02/22 06:28:33;;;;;;;;;;;6.30;42.80;;;;;;6188278;23;20408;-76
2022/02/22 06:31:00;;;;;;;;;;;7.50;39.00;;;;;;6161094;23;19917;-76
2022/02/22 06:33:26;;;;;;;;;;;8.60;36.80;;;;;;6171486;23;19963;-77
2022/02/22 06:35:53;;;;;;;;;;;9.50;34.30;;;;;;6171014;23;19920;-76
2022/02/22 06:38:20;;;;;;;;;;;10.10;33.10;;;;;;6194427;23;19916;-77
2022/02/22 06:40:47;;;;;;;;;;;10.60;31.30;;;;;;6187930;23;20333;-76
2022/02/22 06:43:13;;;;;;;;;;;11.00;30.70;;;;;;6195347;23;19944;-76
2022/02/22 06:45:41;;;;;;;;;;;11.30;30.10;;;;;;6191125;23;19916;-75
2022/02/22 06:48:08;;;;;;;;;;;11.50;29.90;;;;;;6193146;23;20341;-76
2022/02/22 06:50:35;;;;;;;;;;;11.60;29.10;;;;;;6163647;23;19916;-77
2022/02/22 06:53:01;;;;;;;;;;;11.80;28.80;;;;;;6167460;23;19922;-76
2022/02/22 06:55:29;;;;;;;;;;;12.00;28.90;;;;;;6193579;23;19916;-75
2022/02/22 06:58:06;;;;;;;;;;;12.00;28.40;;;;;;6190880;23;19920;-76
2022/02/22 07:00:34;;;;;;;;;;;12.10;28.30;;;;;;6189600;23;19920;-76
2022/02/22 07:03:02;;;;;;;;;;;12.20;27.20;;;;;;6163595;23;20330;-75
2022/02/22 07:05:28;;;;;;;;;;;12.30;28.00;;;;;;6194428;23;20337;-77
2022/02/22 07:07:57;;;;;;;;;;;12.40;27.30;;;;;;6183104;23;20333;-75
2022/02/22 07:10:24;;;;;;;;;;;12.40;27.20;;;;;;6159855;23;19920;-77
2022/02/22 07:12:51;;;;;;;;;;;12.50;27.20;;;;;;6158644;23;19917;-76
2022/02/22 07:15:18;;;;;;;;;;;12.60;26.80;;;;;;6166794;23;20411;-76
2022/02/22 07:17:46;;;;;;;;;;;12.70;26.50;;;;;;6184354;23;19928;-76
2022/02/22 07:20:14;;;;;;;;;;;12.80;26.30;;;;;;6164295;23;20230;-76
2022/02/22 07:22:41;;;;;;;;;;;12.90;25.80;;;;;;6154948;23;19920;-76
2022/02/22 07:25:09;;;;;;;;;;;13.00;25.70;;;;;;6163789;23;20356;-76
2022/02/22 07:27:37;;;;;;;;;;;13.10;25.70;;;;;;6163323;23;20325;-77
2022/02/22 07:30:05;;;;;;;;;;;13.10;25.50;;;;;;6164602;23;19916;-77
2022/02/22 07:32:33;;;;;;;;;;;13.30;24.90;;;;;;6196860;23;19923;-75
2022/02/22 07:34:59;;;;;;;;;;;13.50;24.60;;;;;;6191447;23;19920;-76
2022/02/22 07:37:26;;;;;;;;;;;13.60;24.70;;;;;;6192136;23;20293;-75
2022/02/22 07:39:55;;;;;;;;;;;13.70;23.80;;;;;;6162670;23;19943;-77
2022/02/22 07:42:21;;;;;;;;;;;13.90;24.10;;;;;;6189382;23;20392;-76
2022/02/22 07:44:48;;;;;;;;;;;14.00;24.10;;;;;;6195142;23;19923;-77
2022/02/22 07:47:15;;;;;;;;;;;14.10;23.60;;;;;;6165261;23;19917;-76
2022/02/22 07:49:46;;;;;;;;;;;14.20;23.30;;;;;;6197318;23;19939;-75
2022/02/22 07:52:23;;;;;;;;;;;14.40;22.70;;;;;;6190312;23;20308;-75
2022/02/22 07:54:50;;;;;;;;;;;14.50;22.50;;;;;;6195089;23;19916;-77
2022/02/22 07:57:17;;;;;;;;;;;14.60;22.90;;;;;;6196130;23;19966;-75
2022/02/22 07:59:45;;;;;;;;;;;14.70;22.40;;;;;;6167696;23;19916;-75
2022/02/22 08:02:12;;;;;;;;;;;14.80;21.90;;;;;;6159086;23;19920;-78
2022/02/22 08:04:40;;;;;;;;;;;14.90;22.20;;;;;;6195264;23;19971;-75
2022/02/22 08:07:08;;;;;;;;;;;15.00;21.60;;;;;;6174050;23;19916;-77
2022/02/22 08:09:35;;;;;;;;;;;15.10;22.10;;;;;;6189703;23;19916;-75
2022/02/22 08:12:02;;;;;;;;;;;15.10;22.20;;;;;;6197725;23;19939;-77
2022/02/22 08:14:29;;;;;;;;;;;15.10;22.70;;;;;;6195466;23;20395;-76
2022/02/22 08:17:02;;;;;;;;;;;15.20;22.40;;;;;;6170631;23;20342;-77
2022/02/22 08:19:29;;;;;;;;;;;15.20;23.00;;;;;;6165843;23;20333;-78
2022/02/22 08:21:56;;;;;;;;;;;15.30;22.40;;;;;;6186106;23;19939;-77
2022/02/22 08:24:24;;;;;;;;;;;15.40;22.20;;;;;;6191998;23;19916;-78
2022/02/22 08:26:54;;;;;;;;;;;15.40;21.80;;;;;;6165875;23;19916;-77
2022/02/22 08:29:21;;;;;;;;;;;15.50;21.70;;;;;;6167168;23;20420;-75
2022/02/22 08:31:48;;;;;;;;;;;15.60;21.40;;;;;;6168347;23;19927;-76
2022/02/22 08:34:15;;;;;;;;;;;15.70;22.20;;;;;;6200883;23;19924;-76
2022/02/22 08:36:42;;;;;;;;;;;15.70;21.50;;;;;;6197316;23;19916;-77
2022/02/22 08:39:09;;;;;;;;;;;15.90;21.80;;;;;;6171731;23;19920;-77
2022/02/22 08:41:36;;;;;;;;;;;15.90;21.60;;;;;;6170735;23;20253;-76
2022/02/22 08:44:04;;;;;;;;;;;15.60;27.50;;;;;;6172537;23;20296;-77
2022/02/22 08:46:31;;;;;;;;;;;15.10;28.90;;;;;;6165335;23;19920;-76
2022/02/22 08:48:59;;;;;;;;;;;14.80;29.80;;;;;;6194127;23;19920;-77
2022/02/22 08:51:26;;;;;;;;;;;14.50;30.60;;;;;;6193600;23;19962;-76
2022/02/22 08:53:52;;;;;;;;;;;14.40;31.30;;;;;;6190325;23;19916;-76
2022/02/22 08:56:19;;;;;;;;;;;14.30;31.60;;;;;;6194290;23;20337;-76
2022/02/22 08:58:46;;;;;;;;;;;13.80;31.70;;;;;;6184874;23;20277;-77
2022/02/22 09:01:13;;;;;;;;;;;13.50;32.60;;;;;;6195897;23;20341;-75
2022/02/22 09:03:40;;;;;;;;;;;13.30;33.00;;;;;;6200514;23;19923;-76
2022/02/22 09:06:07;;;;;;;;;;;13.30;33.50;;;;;;6175436;23;19975;-76
2022/02/22 09:08:34;;;;;;;;;;;13.20;33.70;;;;;;6195106;23;19916;-76
2022/02/22 09:11:04;;;;;;;;;;;13.10;34.20;;;;;;6176340;23;19927;-76
2022/02/22 09:13:31;;;;;;;;;;;13.00;34.00;;;;;;6161349;23;20364;-77
2022/02/22 09:15:58;;;;;;;;;;;13.00;34.60;;;;;;6172407;23;20378;-75
2022/02/22 09:18:25;;;;;;;;;;;13.00;35.00;;;;;;6169766;23;19916;-77
2022/02/22 09:20:52;;;;;;;;;;;13.10;34.40;;;;;;6175892;23;19916;-77
2022/02/22 09:23:19;;;;;;;;;;;13.20;33.90;;;;;;6193314;23;19920;-77
2022/02/22 09:25:46;;;;;;;;;;;13.30;34.50;;;;;;6168386;23;19940;-76
2022/02/22 09:28:13;;;;;;;;;;;13.20;34.70;;;;;;6178085;23;19916;-76
2022/02/22 09:30:40;;;;;;;;;;;13.30;34.70;;;;;;6175756;23;19940;-76
2022/02/22 09:33:09;;;;;;;;;;;13.30;34.70;;;;;;6198330;23;19920;-76
2022/02/22 09:35:38;;;;;;;;;;;13.40;34.90;;;;;;6199378;23;19920;-77
2022/02/22 09:38:05;;;;;;;;;;;13.40;34.90;;;;;;6206469;23;19916;-76
2022/02/22 09:40:32;;;;;;;;;;;13.50;34.90;;;;;;6196217;23;19917;-75
2022/02/22 09:43:00;;;;;;;;;;;13.60;35.60;;;;;;6190361;23;19916;-75
2022/02/22 09:45:28;;;;;;;;;;;13.70;34.40;;;;;;6176410;23;19956;-76
2022/02/22 09:47:58;;;;;;;;;;;13.70;33.30;;;;;;6177115;23;19943;-76
2022/02/22 09:50:26;;;;;;;;;;;13.60;32.50;;;;;;6201953;23;19931;-77
2022/02/22 09:52:52;;;;;;;;;;;13.60;34.30;;;;;;6195672;23;19916;-75
2022/02/22 09:55:19;;;;;;;;;;;13.70;33.70;;;;;;6164486;23;20253;-77
2022/02/22 09:57:52;;;;;;;;;;;13.80;34.20;;;;;;6175633;23;19917;-76
2022/02/22 10:00:20;;;;;;;;;;;13.90;34.20;;;;;;6200681;23;20333;-75
2022/02/22 10:02:48;;;;;;;;;;;14.00;33.70;;;;;;6164105;23;19923;-77
2022/02/22 10:05:18;;;;;;;;;;;13.90;32.70;;;;;;6190790;23;20338;-77
2022/02/22 10:07:45;;;;;;;;;;;13.90;32.40;;;;;;6197461;23;20002;-77
2022/02/22 10:10:12;;;;;;;;;;;14.00;33.20;;;;;;6200116;23;19956;-75
2022/02/22 10:12:39;;;;;;;;;;;14.10;33.60;;;;;;6185903;23;19995;-75
2022/02/22 10:15:07;;;;;;;;;;;14.30;34.40;;;;;;6194856;23;19959;-76
2022/02/22 10:17:39;;;;;;;;;;;14.30;34.00;;;;;;6196189;23;19906;-77
2022/02/22 10:20:07;;;;;;;;;;;14.50;33.30;;;;;;6204731;23;19916;-77
2022/02/22 10:22:44;;;;;;;;;;;14.50;33.50;;;;;;6169830;23;19923;-76
2022/02/22 10:25:11;;;;;;;;;;;14.50;33.30;;;;;;6187406;23;19916;-76
2022/02/22 10:27:49;;;;;;;;;;;14.30;33.80;;;;;;6193045;23;19924;-76
2022/02/22 10:30:24;;;;;;;;;;;14.30;33.80;;;;;;6175975;23;19923;-76
2022/02/22 10:32:51;;;;;;;;;;;14.30;34.00;;;;;;6167556;23;19916;-75
2022/02/22 10:35:33;;;;;;;;;;;14.20;33.50;;;;;;6168290;23;19943;-75
2022/02/22 10:38:11;;;;;;;;;;;14.30;34.40;;;;;;6199849;23;19960;-75
2022/02/22 10:40:40;;;;;;;;;;;14.40;33.10;;;;;;6159860;23;20311;-77
2022/02/22 10:43:10;;;;;;;;;;;14.50;34.10;;;;;;6201931;23;20257;-76
2022/02/22 10:45:39;;;;;;;;;;;14.60;33.30;;;;;;6201510;23;19940;-76
2022/02/22 10:48:06;;;;;;;;;;;14.80;34.30;;;;;;6194039;23;19916;-77
2022/02/22 10:50:33;;;;;;;;;;;14.90;34.00;;;;;;6168225;23;20249;-76
2022/02/22 10:53:09;;;;;;;;;;;14.80;34.30;;;;;;6192960;23;19916;-77
2022/02/22 10:55:37;;;;;;;;;;;14.90;34.20;;;;;;6175333;23;19920;-76
2022/02/22 10:58:05;;;;;;;;;;;15.00;33.90;;;;;;6191651;23;20289;-75
2022/02/22 11:00:32;;;;;;;;;;;14.90;33.50;;;;;;6197739;23;19923;-75
2022/02/22 11:03:00;;;;;;;;;;;14.80;33.70;;;;;;6197588;23;19916;-76
2022/02/22 11:05:34;;;;;;;;;;;14.90;33.40;;;;;;6200034;23;19967;-77
2022/02/22 11:08:01;;;;;;;;;;;14.90;31.90;;;;;;6197898;23;19964;-77
2022/02/22 11:10:31;;;;;;;;;;;15.00;33.70;;;;;;6168805;23;20271;-76
2022/02/22 11:13:00;;;;;;;;;;;14.90;33.30;;;;;;6191771;23;19974;-77
2022/02/22 11:15:32;;;;;;;;;;;15.10;33.50;;;;;;6195838;23;19916;-76
2022/02/22 11:18:06;;;;;;;;;;;15.10;33.10;;;;;;6177085;23;19983;-75
2022/02/22 11:20:35;;;;;;;;;;;15.10;32.70;;;;;;6192088;23;19920;-77
2022/02/22 11:23:04;;;;;;;;;;;15.10;33.60;;;;;;6166476;23;19944;-77
2022/02/22 11:25:34;;;;;;;;;;;15.10;33.10;;;;;;6190934;23;19916;-76
2022/02/22 11:28:09;;;;;;;;;;;15.20;34.20;;;;;;6197786;23;19916;-76
2022/02/22 11:30:37;;;;;;;;;;;15.50;33.10;;;;;;6198358;23;19916;-76
2022/02/22 11:33:08;;;;;;;;;;;15.60;32.30;;;;;;6168495;23;19958;-76
2022/02/22 11:35:45;;;;;;;;;;;15.80;31.80;;;;;;6174558;23;20245;-75
2022/02/22 11:38:12;;;;;;;;;;;15.80;31.10;;;;;;6190061;23;19916;-76
2022/02/22 11:40:39;;;;;;;;;;;15.90;31.30;;;;;;6169891;23;19924;-76
2022/02/22 11:43:08;;;;;;;;;;;16.00;31.30;;;;;;6194634;23;19916;-77
2022/02/22 11:45:34;;;;;;;;;;;16.20;32.80;;;;;;6192066;23;19924;-77
2022/02/22 11:48:13;;;;;;;;;;;16.40;31.40;;;;;;6190601;23;19920;-76
2022/02/22 11:50:40;;;;;;;;;;;16.40;30.40;;;;;;6173603;23;19916;-76
2022/02/22 11:53:09;;;;;;;;;;;16.30;30.60;;;;;;6196172;23;19943;-76
2022/02/22 11:55:36;;;;;;;;;;;16.30;30.80;;;;;;6201583;23;19916;-76
2022/02/22 11:58:10;;;;;;;;;;;16.30;30.30;;;;;;6167966;23;19916;-76
2022/02/22 12:00:37;;;;;;;;;;;16.20;30.30;;;;;;6173511;23;19916;-76
2022/02/22 12:03:14;;;;;;;;;;;16.40;30.60;;;;;;6195833;23;20256;-75
2022/02/22 12:05:43;;;;;;;;;;;16.50;31.20;;;;;;6174801;23;20293;-77
2022/02/22 12:08:22;;;;;;;;;;;16.50;30.80;;;;;;6196206;23;19920;-76
2022/02/22 12:10:57;;;;;;;;;;;16.60;30.00;;;;;;6171323;23;19928;-75
2022/02/22 12:13:42;;;;;;;;;;;16.60;30.40;;;;;;6172712;23;19987;-75
2022/02/22 12:16:13;;;;;;;;;;;16.60;30.20;;;;;;6173636;23;19920;-76
2022/02/22 12:18:44;;;;;;;;;;;16.60;30.10;;;;;;6195947;23;19916;-76
2022/02/22 12:21:11;;;;;;;;;;;16.60;30.30;;;;;;6175669;23;19923;-75
2022/02/22 12:23:39;;;;;;;;;;;16.70;30.10;;;;;;6177116;23;20208;-76
2022/02/22 12:26:18;;;;;;;;;;;16.80;30.90;;;;;;6171666;23;19923;-75
2022/02/22 12:28:51;;;;;;;;;;;17.20;30.20;;;;;;6202545;23;19927;-76
2022/02/22 12:31:31;;;;;;;;;;;17.30;29.60;;;;;;6168915;23;19924;-76
2022/02/22 12:33:59;;;;;;;;;;;17.50;29.30;;;;;;6189214;23;19966;-76
2022/02/22 12:36:27;;;;;;;;;;;17.50;28.50;;;;;;6198303;23;19920;-75
2022/02/22 12:38:55;;;;;;;;;;;17.50;28.90;;;;;;6202221;23;19932;-75
2022/02/22 12:41:22;;;;;;;;;;;17.30;27.80;;;;;;6167292;23;20337;-77
2022/02/22 12:43:51;;;;;;;;;;;17.40;29.30;;;;;;6205119;23;19920;-77
2022/02/22 12:46:19;;;;;;;;;;;17.40;28.20;;;;;;6199234;23;19926;-78
2022/02/22 12:48:46;;;;;;;;;;;17.40;28.00;;;;;;6193315;23;20293;-77
2022/02/22 12:51:19;;;;;;;;;;;17.50;28.00;;;;;;6188873;23;19948;-77
2022/02/22 12:53:54;;;;;;;;;;;17.40;28.60;;;;;;6175097;23;19917;-75
2022/02/22 12:56:32;;;;;;;;;;;17.40;28.10;;;;;;6197841;23;19916;-76
2022/02/22 12:58:59;;;;;;;;;;;17.40;28.10;;;;;;6174888;23;19920;-76
2022/02/22 13:01:30;;;;;;;;;;;17.40;28.60;;;;;;6198127;23;19916;-76
2022/02/22 13:03:58;;;;;;;;;;;17.50;28.60;;;;;;6194338;23;19917;-76
2022/02/22 13:06:26;;;;;;;1.10;0.35;;;17.80;28.90;;;;;;6194243;23;19916;-77
2022/02/22 13:08:55;;;;;;;0.57;0.50;;;17.80;27.10;;;;;;6195637;23;20045;-76
2022/02/22 13:11:35;;;;;;;1.58;0.40;;;17.70;27.00;;;;;;6193857;23;20407;-75
2022/02/22 13:14:04;;;;;;;1.10;0.60;;;18.00;28.00;;;;;;6198990;23;20361;-75
2022/02/22 13:16:31;;;;;;;0.95;0.50;;;18.10;27.20;;;;;;6199521;23;20368;-76
2022/02/22 13:19:02;;;;;;;1.30;0.50;;;18.20;27.40;;;;;;6196732;23;20500;-75
2022/02/22 13:21:37;;;;;;;1.52;0.50;;;18.40;27.10;;;;;;6200420;23;20361;-76
2022/02/22 13:24:13;;;;;;;1.95;0.40;;;18.40;26.50;;;;;;6200145;23;20376;-77
2022/02/22 13:26:41;;;;;;;;;;;18.30;27.00;;;;;;6197077;23;20104;-77
2022/02/22 13:29:27;;;;;;;1.15;0.50;;;18.20;28.10;;;;;;6178077;23;19917;-75
2022/02/22 13:32:10;;;;;;;1.02;0.50;;;18.30;28.50;;;;;;6201539;23;20069;-76
2022/02/22 13:34:42;;;;;;;0.90;0.50;;;18.40;27.30;;;;;;6196358;23;20437;-75
2022/02/22 13:37:09;;;;;;;1.38;0.50;;;18.30;27.10;;;;;;6166698;23;20360;-78
2022/02/22 13:39:36;;;;;;;0.80;0.50;;;18.10;27.00;;;;;;6186584;23;20392;-77
2022/02/22 13:42:04;;;;;;;0.98;0.55;;;18.00;26.90;;;;;;6175524;23;20882;-78
2022/02/22 13:44:39;;;;;;;0.80;0.50;;;17.90;27.10;;;;;;6200130;23;20360;-75
2022/02/22 13:47:10;;;;;;;1.58;0.50;;;17.90;27.70;;;;;;6205577;23;20403;-77
2022/02/22 13:49:47;;;;;;;0.70;0.40;;;17.90;27.50;;;;;;6195289;23;20360;-75
2022/02/22 13:52:17;;;;;;;0.60;0.40;;;18.20;28.70;;;;;;6192702;23;20392;-77
2022/02/22 13:54:49;;;;;;;1.60;0.50;;;18.50;27.90;;;;;;6206194;23;20363;-77
2022/02/22 13:57:16;;;;;;;0.60;0.50;;;18.60;26.80;;;;;;6195958;23;20369;-75
2022/02/22 13:59:45;;;;;;;1.10;0.60;;;18.60;26.70;;;;;;6188274;23;20411;-77
2022/02/22 14:02:29;;;;;;;1.10;0.60;;;18.50;27.00;;;;;;6185935;23;20383;-76
2022/02/22 14:04:55;;;;;;;2.00;0.60;;;18.60;27.00;;;;;;6166449;23;20675;-75
2022/02/22 14:07:22;;;;;;;1.00;0.57;;;18.60;27.10;;;;;;6199641;23;20364;-77
2022/02/22 14:09:49;;;;;;;1.30;0.60;;;18.80;28.10;;;;;;6195627;23;20368;-78
2022/02/22 14:12:16;;;;;;;0.87;0.60;;;19.00;27.40;;;;;;6192486;23;20658;-77
2022/02/22 14:14:44;;;;;;;3.40;0.70;;;19.00;26.90;;;;;;6205260;23;20949;-77
2022/02/22 14:17:11;;;;;;;3.17;1.63;;;19.00;26.90;;;;;;6198330;23;20361;-77
2022/02/22 14:19:38;;;;;;;2.42;1.80;;;19.10;25.30;;;;;;6197498;23;20381;-78